Time;durP1;ratioP1;P1;durP2;ratioP2;P2;SDS_P1;SDS_P2;PMS_P1;PMS_P2;Temp;Humidity;BMP_temperature;BMP_pressure;BME280_temperature;BME280_humidity;BME280_pressure;Samples;Min_cycle;Max_cycle;Signal;HPM_P1;HPM_P2
2022/11/10 00:02:12;;;;;;;;;16.50;14.00;;;;;10.31;69.94;101833.19;4976915;28;67214;-75
2022/11/10 00:04:37;;;;;;;;;19.25;15.00;;;;;10.29;70.29;101833.19;4977291;28;45270;-75
2022/11/10 00:07:02;;;;;;;;;14.50;13.25;;;;;10.30;69.89;101839.25;4976625;28;75591;-75
2022/11/10 00:09:27;;;;;;;;;13.75;13.25;;;;;10.28;69.87;101839.28;4976455;28;71632;-75
2022/11/10 00:11:53;;;;;;;;;19.75;12.75;;;;;10.26;70.04;101836.69;4976718;28;66808;-75
2022/11/10 00:17:05;;;;;;;;;16.75;13.50;;;;;10.23;69.94;101856.66;4976977;28;45305;-75
2022/11/10 00:19:32;;;;;;;;;18.75;14.75;;;;;10.22;70.14;101854.94;4976904;28;45871;-74
2022/11/10 00:21:59;;;;;;;;;21.50;18.25;;;;;10.19;70.20;101858.44;4977415;28;45246;-75
2022/11/10 00:24:25;;;;;;;;;17.75;12.25;;;;;10.17;70.16;101861.94;4960032;28;45407;-75
2022/11/10 00:26:50;;;;;;;;;18.50;15.00;;;;;10.11;69.92;101856.78;4977051;28;46109;-75
2022/11/10 00:29:16;;;;;;;;;21.50;16.75;;;;;10.12;70.00;101858.50;4976326;28;62309;-75
2022/11/10 00:31:41;;;;;;;;;25.25;16.00;;;;;10.10;70.20;101862.84;4977312;28;45414;-75
2022/11/10 00:34:11;;;;;;;;;18.00;15.00;;;;;10.07;70.42;101864.63;4959390;28;45566;-75
2022/11/10 00:36:36;;;;;;;;;17.00;14.50;;;;;10.06;70.66;101869.81;4976947;28;46368;-75
2022/11/10 00:39:01;;;;;;;;;23.75;16.75;;;;;10.05;70.45;101878.53;4976135;28;71446;-75
2022/11/10 00:41:27;;;;;;;;;14.50;11.75;;;;;10.04;70.23;101868.97;4976936;28;45417;-75
2022/11/10 00:43:52;;;;;;;;;22.25;15.75;;;;;10.02;70.51;101873.34;4976377;28;65018;-75
2022/11/10 00:46:18;;;;;;;;;16.75;12.75;;;;;10.00;70.59;101869.88;4975945;28;74365;-75
2022/11/10 00:48:43;;;;;;;;;19.50;12.25;;;;;10.00;70.59;101875.09;4976382;28;48273;-75
2022/11/10 00:51:24;;;;;;;;;19.75;16.25;;;;;9.98;70.54;101880.31;4976047;28;68520;-75
2022/11/10 00:53:50;;;;;;;;;15.25;14.75;;;;;9.95;70.91;101880.31;4976870;28;45526;-75
2022/11/10 00:56:15;;;;;;;;;15.00;13.50;;;;;9.95;70.82;101884.66;4975823;28;73873;-75
2022/11/10 00:58:41;;;;;;;;;18.25;14.50;;;;;9.92;70.80;101890.75;4976796;28;45469;-75
2022/11/10 01:01:07;;;;;;;;;16.50;14.75;;;;;9.90;70.76;101889.91;4975954;28;68106;-76
2022/11/10 01:03:32;;;;;;;;;16.50;14.50;;;;;9.84;70.91;101883.03;4975533;28;45420;-75
2022/11/10 01:06:00;;;;;;;;;16.75;13.75;;;;;9.87;70.97;101892.53;4974691;28;72272;-74
2022/11/10 01:08:26;;;;;;;;;19.25;12.25;;;;;9.85;71.05;101891.69;4975335;28;45783;-75
2022/11/10 01:10:51;;;;;;;;;17.50;12.25;;;;;9.85;70.93;101891.69;4975894;28;69376;-75
2022/11/10 01:13:16;;;;;;;;;15.50;11.00;;;;;9.84;71.10;101898.63;4975683;28;69148;-75
2022/11/10 01:15:42;;;;;;;;;11.75;11.25;;;;;9.84;70.73;101905.53;4975676;28;71928;-75
2022/11/10 01:18:07;;;;;;;;;15.00;10.75;;;;;9.80;71.10;101894.31;4974995;28;72190;-75
2022/11/10 01:20:33;;;;;;;;;14.25;11.00;;;;;9.83;71.05;101901.22;4976529;28;45349;-75
2022/11/10 01:22:58;;;;;;;;;18.50;11.25;;;;;9.79;71.18;101899.53;4959039;28;45405;-75
2022/11/10 01:25:24;;;;;;;;;13.00;10.75;;;;;9.77;71.02;101904.75;4958969;28;45368;-75
2022/11/10 01:27:50;;;;;;;;;18.50;11.00;;;;;9.78;71.19;101901.25;4976294;28;45332;-75
2022/11/10 01:30:16;;;;;;;;;14.25;10.50;;;;;9.78;71.38;101906.44;4976228;28;45368;-75
2022/11/10 01:32:41;;;;;;;;;13.00;9.75;;;;;9.74;71.36;101907.34;4958668;28;45379;-75
2022/11/10 01:35:06;;;;;;;;;12.25;10.00;;;;;9.75;71.19;101916.00;4958711;28;46010;-75
2022/11/10 01:37:32;;;;;;;;;10.50;10.00;;;;;9.73;71.42;101916.00;4975908;28;45293;-75
2022/11/10 01:39:57;;;;;;;;;14.50;9.25;;;;;9.69;71.05;101914.31;4976185;28;45376;-75
2022/11/10 01:42:27;;;;;;;;;14.00;10.00;;;;;9.69;71.26;101919.50;4975473;28;66638;-75
2022/11/10 01:45:21;;;;;;;;;12.25;9.00;;;;;9.69;71.33;101927.31;4974882;28;46313;-75
2022/11/10 01:47:46;;;;;;;;;10.00;9.00;;;;;9.70;71.66;101926.44;4976174;28;45757;-75
2022/11/10 01:50:11;;;;;;;;;11.50;10.00;;;;;9.69;71.62;101930.81;4974044;28;69421;-75
2022/11/10 01:52:37;;;;;;;;;11.00;9.75;;;;;9.71;71.52;101932.50;4974110;28;68390;-75
2022/11/10 01:55:02;;;;;;;;;14.50;9.25;;;;;9.68;71.25;101934.25;4974801;28;45340;-75
2022/11/10 01:57:28;;;;;;;;;12.50;10.00;;;;;9.67;71.46;101934.25;4976017;28;45305;-75
2022/11/10 01:59:53;;;;;;;;;10.75;9.75;;;;;9.65;71.67;101933.41;4975061;28;65520;-75
2022/11/10 02:02:32;;;;;;;;;12.25;10.00;;;;;9.65;71.29;101939.47;4974870;28;45474;-75
2022/11/10 02:04:58;;;;;;;;;11.00;10.00;;;;;9.61;71.14;101939.50;4974725;28;46130;-75
2022/11/10 02:07:24;;;;;;;;;14.00;10.00;;;;;9.58;71.31;101944.72;4975964;28;45351;-75
2022/11/10 02:09:52;;;;;;;;;17.50;11.00;;;;;9.56;71.50;101936.91;4973988;28;65996;-75
2022/11/10 02:12:35;;;;;;;;;12.75;9.50;;;;;9.54;71.57;101937.81;4979434;28;45292;-75
2022/11/10 02:15:11;;;;;;;;;12.00;10.25;;;;;9.53;71.69;101946.47;4977806;28;46420;-75
2022/11/10 02:17:36;;;;;;;;;15.50;12.50;;;;;9.53;71.77;101949.94;4978994;28;45562;-75
2022/11/10 02:20:07;;;;;;;;;8.00;6.00;;;;;9.48;71.74;101938.72;4978548;28;67446;-75
2022/11/10 02:22:32;;;;;;;;;14.00;11.00;;;;;9.51;71.56;101946.50;4979142;28;45527;-75
2022/11/10 02:24:58;;;;;;;;;11.50;10.75;;;;;9.49;71.67;101950.84;4978871;28;46821;-75
2022/11/10 02:27:24;;;;;;;;;14.75;13.25;;;;;9.44;71.95;101937.84;4979125;28;45369;-74
2022/11/10 02:29:49;;;;;;;;;13.00;13.00;;;;;9.47;71.94;101950.84;4978669;28;45323;-74
2022/11/10 02:32:14;;;;;;;;;17.75;13.25;;;;;9.40;71.84;101949.16;4978155;28;69469;-75
2022/11/10 02:34:40;;;;;;;;;14.25;11.75;;;;;9.43;72.12;101950.84;4977949;28;68243;-75
2022/11/10 02:37:05;;;;;;;;;18.25;14.25;;;;;9.43;72.05;101953.44;4978770;28;45647;-74
2022/11/10 02:39:31;;;;;;;;;15.25;14.50;;;;;9.42;71.70;101954.34;4978015;28;69395;-75
2022/11/10 02:41:56;;;;;;;;;17.25;12.25;;;;;9.38;71.72;101947.41;4978029;28;68977;-75
2022/11/10 02:44:21;;;;;;;;;17.75;15.50;;;;;9.35;71.97;101950.91;4978340;28;46007;-75
2022/11/10 02:46:47;;;;;;;;;13.50;11.00;;;;;9.33;71.99;101950.03;4978050;28;71850;-75
2022/11/10 02:49:12;;;;;;;;;21.00;15.50;;;;;9.28;71.84;101947.44;4978157;28;59417;-75
2022/11/10 02:51:37;;;;;;;;;26.00;13.00;;;;;9.28;72.34;101956.97;4977902;28;70560;-75
2022/11/10 02:54:04;;;;;;;;;16.50;14.00;;;;;9.27;72.12;101955.28;4977570;28;45463;-75
2022/11/10 02:56:30;;;;;;;;;19.00;14.25;;;;;9.26;72.24;101953.53;4977525;28;45395;-75
2022/11/10 02:58:55;;;;;;;;;20.50;12.00;;;;;9.27;72.16;101948.34;4978543;28;45293;-75
2022/11/10 03:01:21;;;;;;;;;15.75;12.75;;;;;9.27;72.10;101952.66;4978736;28;45499;-75
2022/11/10 03:03:46;;;;;;;;;15.00;13.00;;;;;9.24;72.42;101956.13;4975449;28;75382;-74
2022/11/10 03:06:11;;;;;;;;;14.00;13.75;;;;;9.20;72.15;101953.56;4976709;28;68561;-75
2022/11/10 03:08:38;;;;;;;;;15.25;11.50;;;;;9.19;72.15;101957.88;4977405;28;69520;-75
2022/11/10 03:11:03;;;;;;;;;12.50;11.50;;;;;9.19;72.22;101954.41;4978567;28;45243;-75
2022/11/10 03:13:29;;;;;;;;;14.75;9.25;;;;;9.17;72.24;101946.63;4977948;28;46332;-75
2022/11/10 03:15:55;;;;;;;;;14.25;10.50;;;;;9.18;72.43;101965.69;4978544;28;45661;-75
2022/11/10 03:18:20;;;;;;;;;11.00;11.00;;;;;9.17;72.16;101964.81;4978205;28;45662;-75
2022/11/10 03:20:47;;;;;;;;;13.75;10.00;;;;;9.15;72.47;101965.69;4978400;28;45356;-75
2022/11/10 03:23:13;;;;;;;;;14.25;8.50;;;;;9.10;72.63;101945.81;4976999;28;46429;-75
2022/11/10 03:25:38;;;;;;;;;12.50;8.25;;;;;9.09;72.29;101957.03;4978203;28;45406;-75
2022/11/10 03:28:03;;;;;;;;;15.50;9.50;;;;;9.10;72.70;101968.28;4977539;28;53519;-75
2022/11/10 03:30:29;;;;;;;;;11.25;11.00;;;;;9.08;72.58;101964.84;4977187;28;69580;-74
2022/11/10 03:32:54;;;;;;;;;7.25;5.25;;;;;9.02;72.81;101955.34;4976835;28;75788;-75
2022/11/10 03:35:20;;;;;;;;;13.25;9.25;;;;;9.06;72.62;101964.88;4977088;28;72039;-75
2022/11/10 03:37:45;;;;;;;;;12.00;7.00;;;;;9.05;72.77;101965.72;4978014;28;45492;-75
2022/11/10 03:40:10;;;;;;;;;8.50;8.50;;;;;9.07;72.89;101978.72;4976899;28;69987;-74
2022/11/10 03:42:40;;;;;;;;;11.00;7.00;;;;;9.04;72.66;101970.91;4977504;28;47319;-75
2022/11/10 03:45:06;;;;;;;;;8.00;5.25;;;;;9.02;72.16;101975.25;4977839;28;45858;-75
2022/11/10 03:47:31;;;;;;;;;10.25;6.00;;;;;9.01;72.76;101977.00;4977995;28;45377;-74
2022/11/10 03:49:56;;;;;;;;;10.00;7.50;;;;;9.01;72.71;101974.41;4977151;28;68898;-75
2022/11/10 03:52:22;;;;;;;;;13.75;8.50;;;;;8.98;72.69;101982.19;4976723;28;75382;-75
2022/11/10 03:54:47;;;;;;;;;8.75;8.00;;;;;8.97;72.79;101982.19;4976780;28;73209;-75
2022/11/10 03:57:13;;;;;;;;;7.00;5.50;;;;;8.95;72.81;101983.94;4977631;28;45419;-75
2022/11/10 03:59:38;;;;;;;;;7.00;6.00;;;;;8.91;72.92;101983.06;4977782;28;45367;-75
2022/11/10 04:02:03;;;;;;;;;6.00;3.50;;;;;8.92;72.91;101984.81;4976674;28;75577;-75
2022/11/10 04:09:56;;;;;;;;;5.00;5.00;;;;;8.88;72.75;101988.28;4977370;28;45229;-75
2022/11/10 04:17:51;;;;;;;;;7.00;3.25;;;;;8.81;72.81;101997.81;4977417;28;45305;-75
2022/11/10 04:20:16;;;;;;;;;10.25;6.00;;;;;8.82;73.52;101998.66;4976460;28;70918;-74
2022/11/10 04:26:27;;;;;;;;;5.50;5.00;;;;;8.85;73.10;102001.25;4935847;28;45426;-75
2022/11/10 04:28:15;;;;;;;;;5.00;4.75;;;;;8.82;73.28;102003.84;4936137;28;45409;-74
2022/11/10 04:30:43;;;;;;;;;6.00;5.00;;;;;8.80;72.62;102008.19;4935332;28;69331;-75
2022/11/10 04:33:08;;;;;;;;;11.50;5.00;;;;;8.80;73.08;102016.84;4935698;28;45473;-75
2022/11/10 04:35:33;;;;;;;;;6.00;4.00;;;;;8.80;73.00;102015.97;4935229;28;73027;-75
2022/11/10 04:37:59;;;;;;;;;5.75;5.00;;;;;8.77;72.76;102011.66;4935286;28;65519;-75
2022/11/10 04:40:24;;;;;;;;;7.75;5.00;;;;;8.76;72.81;102014.25;4935734;28;45721;-74
2022/11/10 04:42:50;;;;;;;;;6.00;5.00;;;;;8.76;73.20;102019.44;4919786;28;45302;-75
2022/11/10 04:45:15;;;;;;;;;6.00;5.00;;;;;8.73;72.88;102017.72;4935161;28;70761;-75
2022/11/10 04:47:40;;;;;;;;;5.00;2.25;;;;;8.71;72.92;102022.03;4935168;28;68364;-75
2022/11/10 04:50:06;;;;;;;;;6.75;5.75;;;;;8.69;73.00;102024.66;4918908;28;71084;-75
2022/11/10 04:52:31;;;;;;;;;7.75;6.75;;;;;8.68;72.96;102025.50;4935957;28;45498;-74
2022/11/10 04:54:56;;;;;;;;;7.25;7.25;;;;;8.67;73.23;102030.69;4934425;28;73112;-75
2022/11/10 04:57:21;;;;;;;;;9.75;5.50;;;;;8.66;73.09;102036.78;4935343;28;64644;-75
2022/11/10 04:59:47;;;;;;;;;10.75;6.50;;;;;8.64;73.14;102044.53;4934950;28;68657;-75
2022/11/10 05:02:12;;;;;;;;;8.50;4.75;;;;;8.65;73.18;102046.25;4949882;28;73575;-75
2022/11/10 05:04:37;;;;;;;;;7.25;6.75;;;;;8.66;73.55;102039.38;4975924;28;69105;-75
2022/11/10 05:07:03;;;;;;;;;7.50;5.50;;;;;8.67;73.43;102046.25;4975975;28;65890;-75
2022/11/10 05:09:28;;;;;;;;;12.25;7.25;;;;;8.64;73.49;102051.47;4975565;28;65874;-75
2022/11/10 05:11:53;;;;;;;;;8.25;6.75;;;;;8.62;73.53;102053.22;4975543;28;76637;-75
2022/11/10 05:14:19;;;;;;;;;17.25;9.00;;;;;8.61;72.96;102065.31;4975656;28;70092;-75
2022/11/10 05:16:44;;;;;;;;;9.00;9.00;;;;;8.61;73.12;102073.09;4975585;28;68179;-74
2022/11/10 05:19:09;;;;;;;;;6.75;6.00;;;;;8.61;73.32;102083.47;4975589;28;69658;-75
2022/11/10 05:21:34;;;;;;;;;12.00;9.75;;;;;8.58;73.12;102080.00;4976265;28;51593;-75
2022/11/10 05:24:00;;;;;;;;;8.75;7.50;;;;;8.57;72.94;102081.75;4975320;28;66022;-75
2022/11/10 05:26:25;;;;;;;;;9.50;7.50;;;;;8.53;73.38;102087.81;4976488;28;45453;-75
2022/11/10 05:28:50;;;;;;;;;9.00;8.25;;;;;8.49;73.15;102079.16;4975416;28;69379;-75
2022/11/10 05:31:16;;;;;;;;;11.50;8.00;;;;;8.49;73.25;102092.13;4975206;28;75404;-74
2022/11/10 05:33:41;;;;;;;;;10.50;8.00;;;;;8.49;73.51;102088.66;4975439;28;65932;-75
2022/11/10 05:36:07;;;;;;;;;16.75;10.00;;;;;8.48;73.75;102092.97;4976422;28;45435;-75
2022/11/10 05:38:33;;;;;;;;;9.00;8.25;;;;;8.47;73.78;102099.03;4958354;28;45399;-75
2022/11/10 05:40:58;;;;;;;;;16.25;10.00;;;;;8.45;73.63;102097.28;4976087;28;45283;-75
2022/11/10 05:43:23;;;;;;;;;11.50;11.00;;;;;8.43;73.50;102097.31;4975395;28;67466;-75
2022/11/10 05:45:49;;;;;;;;;15.00;11.50;;;;;8.42;73.42;102097.31;4974798;28;57206;-75
2022/11/10 05:48:15;;;;;;;;;16.25;13.00;;;;;8.39;73.47;102092.06;4976230;28;45410;-75
2022/11/10 05:50:42;;;;;;;;;17.00;12.00;;;;;8.40;73.98;102104.19;4976143;28;45572;-76
2022/11/10 05:53:07;;;;;;;;;14.00;11.75;;;;;8.38;73.81;102099.00;4974548;28;45257;-76
2022/11/10 05:55:32;;;;;;;;;16.00;11.00;;;;;8.38;73.98;102104.19;4974924;28;45420;-75
2022/11/10 05:57:58;;;;;;;;;18.00;13.75;;;;;8.37;73.80;102104.19;4975359;28;66798;-75
2022/11/10 06:00:25;;;;;;;;;14.50;10.00;;;;;8.36;73.97;102103.31;4975960;28;46076;-75
2022/11/10 06:03:09;;;;;;;;;12.75;12.00;;;;;8.36;73.81;102102.44;4974855;28;45841;-75
2022/11/10 06:05:35;;;;;;;;;14.50;12.75;;;;;8.34;73.94;102102.44;4974824;28;45371;-76
2022/11/10 06:08:01;;;;;;;;;14.50;11.25;;;;;8.34;73.72;102108.50;4975730;28;45423;-75
2022/11/10 06:10:27;;;;;;;;;11.75;10.00;;;;;8.34;74.12;102107.63;4975843;28;46312;-75
2022/11/10 06:12:52;;;;;;;;;12.75;11.50;;;;;8.35;73.58;102117.13;4974847;28;71903;-75
2022/11/10 06:15:18;;;;;;;;;15.50;9.25;;;;;8.34;73.93;102110.22;4976088;28;45352;-75
2022/11/10 06:17:43;;;;;;;;;13.00;12.25;;;;;8.32;73.63;102109.34;4975163;28;58668;-75
2022/11/10 06:20:09;;;;;;;;;16.75;13.00;;;;;8.30;73.64;102111.94;4958336;28;45835;-75
2022/11/10 06:22:35;;;;;;;;;13.75;11.00;;;;;8.22;74.11;102103.25;4975437;28;45226;-75
2022/11/10 06:25:00;;;;;;;;;16.00;11.50;;;;;8.25;73.95;102108.47;4975811;28;45329;-75
2022/11/10 06:27:25;;;;;;;;;12.25;10.00;;;;;8.22;74.34;102111.03;4975007;28;60395;-75
2022/11/10 06:29:51;;;;;;;;;12.75;11.25;;;;;8.21;74.59;102106.75;4974564;28;72072;-76
2022/11/10 06:32:16;;;;;;;;;13.75;10.00;;;;;8.21;73.92;102113.63;4974690;28;69742;-75
2022/11/10 06:34:41;;;;;;;;;12.25;8.25;;;;;8.24;74.08;102118.84;4974843;28;65005;-76
2022/11/10 06:37:06;;;;;;;;;12.00;8.50;;;;;8.23;74.01;102124.91;4956684;28;70578;-75
2022/11/10 06:39:32;;;;;;;;;10.00;7.00;;;;;8.23;74.03;102132.69;4975353;28;46904;-75
2022/11/10 06:41:57;;;;;;;;;11.00;9.00;;;;;8.20;74.47;102130.06;4974323;28;45380;-76
2022/11/10 06:44:22;;;;;;;;;9.50;9.25;;;;;8.24;74.28;102142.19;4974841;28;61274;-76
2022/11/10 06:46:48;;;;;;;;;5.25;5.25;;;;;8.25;74.55;102147.38;4974965;28;63594;-75
2022/11/10 06:49:13;;;;;;;;;8.00;7.50;;;;;8.25;74.54;102146.53;4973176;28;75701;-75
2022/11/10 06:51:39;;;;;;;;;10.00;6.25;;;;;8.23;74.61;102143.91;4974244;28;68247;-75
2022/11/10 06:54:04;;;;;;;;;9.25;5.25;;;;;8.27;74.37;102153.44;4975423;28;45330;-76
2022/11/10 06:56:29;;;;;;;;;9.25;5.75;;;;;8.27;74.90;102157.78;4976445;28;45327;-75
2022/11/10 06:58:55;;;;;;;;;6.75;5.50;;;;;8.28;74.73;102159.50;4977890;28;71394;-75
2022/11/10 07:01:25;;;;;;;;;6.00;5.00;;;;;8.33;74.68;102168.16;4977984;28;65587;-75
2022/11/10 07:03:50;;;;;;;;;5.00;4.00;;;;;8.33;74.73;102174.22;4978757;28;45410;-76
2022/11/10 07:06:16;;;;;;;;;8.75;4.50;;;;;8.34;75.22;102180.28;4977088;28;45554;-75
2022/11/10 07:08:41;;;;;;;;;11.50;6.00;;;;;8.34;75.12;102178.53;4977548;28;72611;-76
2022/11/10 07:11:06;;;;;;;;;11.00;4.00;;;;;8.35;75.06;102187.19;4978499;28;45362;-75
2022/11/10 07:13:32;;;;;;;;;8.50;5.00;;;;;8.36;75.24;102190.63;4978351;28;45437;-76
2022/11/10 07:15:57;;;;;;;;;7.50;6.00;;;;;8.38;75.22;102196.72;4978506;28;45446;-75
2022/11/10 07:18:22;;;;;;;;;7.00;5.75;;;;;8.37;75.16;102192.38;4977957;28;46042;-75
2022/11/10 07:20:48;;;;;;;;;8.00;5.00;;;;;8.42;74.96;102203.69;4959665;28;67620;-75
2022/11/10 07:23:13;;;;;;;;;9.50;7.75;;;;;8.44;75.00;102201.97;4977403;28;68249;-75
2022/11/10 07:25:38;;;;;;;;;8.00;5.50;;;;;8.44;75.07;102205.41;4977850;28;55136;-76
2022/11/10 07:28:06;;;;;;;;;7.00;5.00;;;;;8.45;75.04;102204.56;4977256;28;75152;-75
2022/11/10 07:30:33;;;;;;;;;9.00;7.25;;;;;8.51;75.13;102207.19;4976425;28;45753;-74
2022/11/10 07:33:05;;;;;;;;;6.00;5.25;;;;;8.54;75.51;102211.50;4979151;28;45341;-75
2022/11/10 07:35:32;;;;;;;;;4.25;3.75;;;;;8.58;76.00;102214.97;4977256;28;45356;-76
2022/11/10 07:38:00;;;;;;;;;5.75;3.25;;;;;8.64;76.00;102215.00;4977154;28;45334;-77
2022/11/10 07:40:26;;;;;;;;;4.75;4.75;;;;;8.68;75.60;102222.78;4980605;28;45657;-77
2022/11/10 07:42:51;;;;;;;;;5.75;5.00;;;;;8.73;75.90;102222.81;4976950;28;68118;-78
2022/11/10 07:45:16;;;;;;;;;7.75;2.50;;;;;8.81;76.09;102234.09;4976894;28;45573;-77
2022/11/10 07:47:42;;;;;;;;;6.00;3.25;;;;;8.86;76.75;102237.56;4959425;28;45333;-77
2022/11/10 07:50:07;;;;;;;;;8.00;5.00;;;;;8.93;76.45;102241.03;4991821;28;70701;-77
2022/11/10 07:52:33;;;;;;;;;4.75;4.50;;;;;9.00;76.32;102247.09;4977243;28;45502;-77
2022/11/10 07:54:59;;;;;;;;;5.00;3.00;;;;;9.01;75.93;102247.13;4977153;28;45346;-77
2022/11/10 07:57:24;;;;;;;;;3.25;3.25;;;;;9.08;75.85;102255.75;4976401;28;46297;-77
2022/11/10 07:59:49;;;;;;;;;6.25;3.25;;;;;9.15;75.70;102267.91;4976630;28;67371;-77
2022/11/10 08:02:15;;;;;;;;;6.00;5.00;;;;;9.17;75.64;102268.78;4976604;28;65912;-77
2022/11/10 08:04:40;;;;;;;;;5.00;3.75;;;;;9.21;75.42;102277.44;4976399;28;64116;-77
2022/11/10 08:07:05;;;;;;;;;5.25;4.50;;;;;9.25;75.56;102284.41;4976187;28;68198;-77
2022/11/10 08:09:31;;;;;;;;;7.00;4.00;;;;;9.26;75.35;102289.56;4975309;28;68189;-76
2022/11/10 08:11:57;;;;;;;;;7.00;3.25;;;;;9.30;75.23;102295.63;4977295;28;45405;-77
2022/11/10 08:14:22;;;;;;;;;6.00;5.00;;;;;9.32;75.56;102295.66;4976657;28;68939;-77
2022/11/10 08:16:47;;;;;;;;;6.00;6.00;;;;;9.32;75.33;102299.09;4975859;28;46503;-77
2022/11/10 08:19:13;;;;;;;;;5.50;5.00;;;;;9.38;75.92;102304.31;4976922;28;45372;-78
2022/11/10 08:21:38;;;;;;;;;9.50;5.50;;;;;9.39;75.60;102303.44;4976511;28;45495;-77
2022/11/10 08:24:04;;;;;;;;;9.25;5.00;;;;;9.42;75.70;102311.25;4977198;28;45560;-77
2022/11/10 08:26:29;;;;;;;;;5.00;4.00;;;;;9.45;75.75;102312.97;4974908;28;46170;-77
2022/11/10 08:28:54;;;;;;;;;7.00;7.00;;;;;9.42;75.71;102300.84;4967303;28;45497;-78
2022/11/10 08:31:20;;;;;;;;;12.50;9.50;;;;;9.54;75.69;102309.53;4956016;28;63072;-77
2022/11/10 08:33:45;;;;;;;;;16.00;9.00;;;;;9.60;76.15;102320.81;4974318;28;45472;-77
2022/11/10 08:36:11;;;;;;;;;9.25;6.00;;;;;9.61;75.81;102311.28;4976629;28;45926;-77
2022/11/10 08:38:36;;;;;;;;;11.00;9.25;;;;;9.67;75.79;102322.53;4976099;28;59957;-77
2022/11/10 08:41:01;;;;;;;;;5.00;5.00;;;;;9.78;76.11;102316.47;4975359;28;45277;-77
2022/11/10 08:43:27;;;;;;;;;9.00;9.00;;;;;9.77;75.82;102313.00;4959441;28;45507;-78
2022/11/10 08:45:55;;;;;;;;;10.75;5.00;;;;;9.89;76.75;102325.13;4976394;28;45435;-77
2022/11/10 08:48:21;;;;;;;;;10.00;7.00;;;;;9.99;76.57;102329.47;4976580;28;45799;-76
2022/11/10 08:50:48;;;;;;;;;17.00;9.25;;;;;10.06;76.07;102332.91;4976869;28;45442;-77
2022/11/10 08:53:16;;;;;;;;;9.25;5.00;;;;;10.13;76.28;102333.78;4976761;28;45615;-77
2022/11/10 08:55:42;;;;;;;;;8.25;6.00;;;;;10.19;76.52;102332.00;4976420;28;45422;-77
2022/11/10 08:58:11;;;;;;;;;8.00;6.00;;;;;10.28;77.12;102332.00;4976594;28;45666;-77
2022/11/10 09:00:36;;;;;;;;;8.00;6.00;;;;;10.40;76.80;102330.25;4976460;28;45370;-76
2022/11/10 09:03:12;;;;;;;;;6.00;4.50;;;;;10.51;76.83;102330.25;4975938;28;61503;-77
2022/11/10 09:05:38;;;;;;;;;14.75;6.00;;;;;10.61;76.57;102327.59;4976171;28;46269;-77
2022/11/10 09:08:03;;;;;;;;;10.75;6.00;;;;;10.76;76.50;102347.50;4976573;28;45400;-77
2022/11/10 09:10:30;;;;;;;;;8.00;6.00;;;;;10.77;76.43;102338.84;4976446;28;45308;-77
2022/11/10 09:12:59;;;;;;;;;6.25;4.50;;;;;10.96;76.13;102360.47;4976621;28;45336;-77
2022/11/10 09:15:24;;;;;;;;;14.25;5.00;;;;;11.08;76.14;102361.28;4975855;28;45690;-76
2022/11/10 09:17:50;;;;;;;;;7.50;5.00;;;;;11.11;76.06;102349.09;4975956;28;45368;-76
2022/11/10 09:20:15;;;;;;;;;10.00;7.00;;;;;11.29;75.84;102362.88;4974120;28;69226;-77
2022/11/10 09:22:40;;;;;;;;;9.50;5.00;;;;;11.34;75.24;102351.56;4976307;28;45391;-77
2022/11/10 09:25:06;;;;;;;;;10.25;5.00;;;;;11.51;75.21;102368.84;4976085;28;46141;-77
2022/11/10 09:27:35;;;;;;;;;8.00;6.50;;;;;11.52;75.24;102357.53;4975979;28;45478;-77
2022/11/10 09:30:00;;;;;;;;;6.75;5.25;;;;;11.57;75.19;102348.81;4975796;28;45486;-76
2022/11/10 09:32:25;;;;;;;;;6.75;5.25;;;;;11.69;74.87;102352.19;4975763;28;49964;-76
2022/11/10 09:34:51;;;;;;;;;6.00;6.00;;;;;11.77;74.50;102355.59;4975527;28;58227;-77
2022/11/10 09:37:16;;;;;;;;;5.00;3.50;;;;;11.79;74.76;102352.13;4975476;28;56689;-76
2022/11/10 09:39:41;;;;;;;;;7.50;5.75;;;;;11.88;74.60;102350.28;4957829;28;63154;-77
2022/11/10 09:42:27;;;;;;;;;7.50;5.00;;;;;12.03;74.32;102365.00;4975323;28;63379;-77
2022/11/10 09:45:20;;;;;;;;;6.00;6.00;;;;;12.09;74.51;102363.19;4964404;28;46420;-77
2022/11/10 09:48:08;;;;;;;;;4.50;4.50;;;;;12.20;74.25;102363.06;4955677;28;45248;-77
2022/11/10 09:50:45;;;;;;;;;7.00;2.75;;;;;12.25;73.82;102360.44;4939057;28;45410;-77
2022/11/10 09:53:34;;;;;;;;;6.25;3.00;;;;;12.34;73.83;102368.16;4956232;28;45516;-76
2022/11/10 09:56:04;;;;;;;;;4.25;3.00;;;;;12.40;73.96;102365.50;4938659;28;46548;-77
2022/11/10 09:58:41;;;;;;;;;7.25;3.00;;;;;12.50;73.89;102366.25;4938672;28;45624;-77
2022/11/10 10:01:12;;;;;;;;;2.00;2.00;;;;;12.56;73.72;102379.25;4956320;28;45386;-77
2022/11/10 10:03:45;;;;;;;;;7.50;3.75;;;;;12.62;74.43;102370.47;4955981;28;45336;-77
2022/11/10 10:06:15;;;;;;;;;6.00;3.00;;;;;12.69;74.00;102373.00;4956138;28;46181;-77
2022/11/10 10:09:03;;;;;;;;;2.50;2.00;;;;;12.82;72.77;102388.56;4938717;28;45761;-76
2022/11/10 10:11:34;;;;;;;;;6.00;4.00;;;;;12.89;73.19;102393.69;4956080;28;45393;-77
2022/11/10 10:14:17;;;;;;;;;5.00;3.00;;;;;12.96;72.46;102397.06;4955769;28;45499;-76
2022/11/10 10:16:43;;;;;;;;;4.00;2.50;;;;;13.08;72.79;102404.75;4942669;28;46423;-77
2022/11/10 10:19:41;;;;;;;;;6.50;2.00;;;;;13.18;72.46;102411.59;4957900;28;45741;-77
2022/11/10 10:22:29;;;;;;;;;6.50;2.75;;;;;13.26;71.77;102401.06;4975122;28;45353;-77
2022/11/10 10:24:58;;;;;;;;;2.00;2.00;;;;;13.40;72.32;102406.13;4958198;28;45461;-77
2022/11/10 10:27:25;;;;;;;;;6.25;2.00;;;;;13.49;71.02;102412.97;4973667;28;45514;-78
2022/11/10 10:29:51;;;;;;;;;6.00;2.25;;;;;13.60;70.80;102425.91;4952498;28;45507;-77
2022/11/10 10:32:17;;;;;;;;;4.00;2.00;;;;;13.69;70.29;102425.78;4977413;28;45334;-77
2022/11/10 10:34:44;;;;;;;;;6.50;3.00;;;;;13.75;69.98;102434.38;4978713;28;45550;-77
2022/11/10 10:37:25;;;;;;;;;6.75;2.75;;;;;13.90;69.88;102438.50;4960806;28;46416;-77
2022/11/10 10:39:54;;;;;;;;;2.50;1.25;;;;;14.02;70.22;102436.56;4978395;28;45743;-77
2022/11/10 10:42:36;;;;;;;;;2.25;2.25;;;;;14.25;70.43;102444.06;4978163;28;45263;-77
2022/11/10 10:45:13;;;;;;;;;3.00;2.00;;;;;14.53;69.28;102444.44;4978514;28;45494;-77
2022/11/10 10:47:39;;;;;;;;;3.00;1.00;;;;;14.85;69.95;102435.13;4978203;28;46994;-76
2022/11/10 10:50:30;;;;;;;;;2.00;2.00;;;;;15.84;69.29;102434.75;4976739;28;45395;-77
2022/11/10 10:53:11;;;;;;;;;3.75;1.00;;;;;16.38;65.43;102432.53;4976758;28;45490;-76
2022/11/10 10:55:37;;;;;;;;;5.00;4.00;;;;;17.00;65.86;102435.22;4978130;28;45619;-77
2022/11/10 10:58:28;;;;;;;;;2.75;2.00;;;;;18.51;63.55;102432.19;4960254;28;46316;-77
2022/11/10 11:00:55;;;;;;;;;5.00;2.00;;;;;20.08;60.00;102429.69;4973435;28;45650;-77
2022/11/10 11:03:37;;;;;;;;;4.25;3.00;;;;;21.64;57.93;102430.66;4960354;28;45250;-78
2022/11/10 11:06:06;;;;;;;;;2.00;2.00;;;;;22.85;53.94;102428.03;4978070;28;45611;-77
2022/11/10 11:08:31;;;;;;;;;3.00;2.00;;;;;23.94;49.57;102414.81;4977638;28;46639;-77
2022/11/10 11:11:05;;;;;;;;;3.00;2.00;;;;;24.98;47.57;102422.72;4976873;28;73058;-77
2022/11/10 11:13:31;;;;;;;;;3.00;3.00;;;;;25.55;45.41;102423.53;4977514;28;45432;-76
2022/11/10 11:15:58;;;;;;;;;2.00;2.00;;;;;26.09;44.55;102415.47;4977645;28;51756;-78
2022/11/10 11:18:24;;;;;;;;;6.25;3.00;;;;;26.78;43.51;102413.34;4977432;28;46219;-78
2022/11/10 11:21:05;;;;;;;;;5.75;1.75;;;;;27.56;40.67;102416.63;4977909;28;45379;-77
2022/11/10 11:23:45;;;;;;;;;2.00;2.00;;;;;27.92;40.84;102413.03;4960158;28;45362;-78
2022/11/10 11:26:17;;;;;;;;;3.00;3.00;;;;;28.55;38.83;102412.66;4986177;28;45616;-76
2022/11/10 11:28:55;;;;;;;;;2.50;2.50;;;;;29.03;36.50;102414.19;4977991;28;45748;-77
2022/11/10 11:31:47;;;;;;;;;3.50;1.50;;;;;29.40;38.48;102420.09;4978204;28;46066;-77
2022/11/10 11:34:29;;;;;;;;;6.25;4.00;;;;;30.13;35.18;102428.31;4977073;28;45282;-77
2022/11/10 11:36:58;;;;;;;;;3.00;3.00;;;;;30.51;32.91;102426.81;4976590;28;45258;-77
2022/11/10 11:39:52;;;;;;;;;2.00;2.00;;;;;30.47;34.04;102420.88;4978072;28;45364;-77
2022/11/10 11:42:27;;;;;;;;;1.75;1.00;;;;;30.69;35.34;102427.03;4958114;28;45332;-78
2022/11/10 11:45:14;;;;;;;;;2.75;2.00;;;;;31.09;34.16;102425.34;4940893;28;45329;-77